Time,TemperatureF,DewpointF,PressureIn,WindDirection,WindDirectionDegrees,WindSpeedMPH,WindSpeedGustMPH,Humidity,HourlyPrecipIn,Conditions,Clouds,dailyrainin,SoftwareType,DateUTC
2013-03-27 00:02:00,33.2,23.1,30.27,SE,128,0.0,6.0,66,0.00,,SKC,0.00,VWS V13.01,2013-03-27 05:02:00,
2013-03-27 01:27:00,31.4,24.1,30.30,SE,140,0.0,0.0,74,0.00,,SKC,0.00,VWS V13.01,2013-03-27 06:27:00,
2013-03-27 01:33:00,31.3,24.0,30.30,SE,140,0.0,0.0,74,0.00,,SKC,0.00,VWS V13.01,2013-03-27 06:33:00,
2013-03-27 01:38:00,31.2,23.9,30.30,SE,140,0.0,0.0,74,0.00,,SKC,0.00,VWS V13.01,2013-03-27 06:38:00,
2013-03-27 01:43:00,31.2,23.9,30.30,SE,140,0.0,0.0,74,0.00,,SKC,0.00,VWS V13.01,2013-03-27 06:43:00,
2013-03-27 01:48:00,31.0,24.0,30.30,SE,140,0.0,0.0,75,0.00,,SKC,0.00,VWS V13.01,2013-03-27 06:48:00,
2013-03-27 01:53:00,31.0,24.0,30.29,SE,140,0.0,0.0,75,0.00,,SKC,0.00,VWS V13.01,2013-03-27 06:53:00,
2013-03-27 01:59:00,30.8,23.8,30.29,SE,140,0.0,0.0,75,0.00,,SKC,0.00,VWS V13.01,2013-03-27 06:59:00,
2013-03-27 02:04:00,30.8,23.8,30.29,SE,141,0.0,0.0,75,0.00,,SKC,0.00,VWS V13.01,2013-03-27 07:04:00,
2013-03-27 02:09:00,30.6,23.6,30.29,SE,140,0.0,0.0,75,0.00,,SKC,0.00,VWS V13.01,2013-03-27 07:09:00,
2013-03-27 02:14:00,30.5,23.5,30.29,SE,140,0.0,0.0,75,0.00,,SKC,0.00,VWS V13.01,2013-03-27 07:14:00,
2013-03-27 02:19:00,30.4,23.8,30.29,SE,140,0.0,0.0,76,0.00,,SKC,0.00,VWS V13.01,2013-03-27 07:19:00,
2013-03-27 02:24:00,30.2,23.6,30.29,SE,141,0.0,0.0,76,0.00,,SKC,0.00,VWS V13.01,2013-03-27 07:24:00,
2013-03-27 02:29:00,30.0,23.4,30.29,SE,140,0.0,0.0,76,0.00,,SKC,0.00,VWS V13.01,2013-03-27 07:29:00,
2013-03-27 02:34:00,29.9,23.6,30.29,SE,141,0.0,0.0,77,0.00,,SKC,0.00,VWS V13.01,2013-03-27 07:34:00,
2013-03-27 02:39:00,29.8,23.5,30.28,SE,141,0.0,0.0,77,0.00,,SKC,0.00,VWS V13.01,2013-03-27 07:39:00,
2013-03-27 02:45:00,29.6,23.3,30.28,SE,141,0.0,0.0,77,0.00,,SKC,0.00,VWS V13.01,2013-03-27 07:45:00,
2013-03-27 02:50:00,29.5,23.2,30.28,SE,140,0.0,0.0,77,0.00,,SKC,0.00,VWS V13.01,2013-03-27 07:50:00,
2013-03-27 02:55:00,29.4,23.4,30.28,SE,141,0.0,0.0,78,0.00,,SKC,0.00,VWS V13.01,2013-03-27 07:55:00,
2013-03-27 03:00:00,29.3,23.3,30.28,SE,140,0.0,0.0,78,0.00,,SKC,0.00,VWS V13.01,2013-03-27 08:00:00,
2013-03-27 03:05:00,29.2,23.2,30.27,SE,141,0.0,0.0,78,0.00,,SKC,0.00,VWS V13.01,2013-03-27 08:05:00,
2013-03-27 03:10:00,29.1,23.1,30.27,SE,141,0.0,0.0,78,0.00,,SKC,0.00,VWS V13.01,2013-03-27 08:10:00,
2013-03-27 03:15:00,29.1,23.1,30.28,SE,140,0.0,0.0,78,0.00,,SKC,0.00,VWS V13.01,2013-03-27 08:15:00,
2013-03-27 03:20:00,29.0,23.0,30.28,SE,140,0.0,0.0,78,0.00,,SKC,0.00,VWS V13.01,2013-03-27 08:20:00,
2013-03-27 03:25:00,29.0,23.0,30.27,SE,140,0.0,0.0,78,0.00,,SKC,0.00,VWS V13.01,2013-03-27 08:25:00,
2013-03-27 03:30:00,28.9,22.9,30.27,SE,140,0.0,0.0,78,0.00,,SKC,0.00,VWS V13.01,2013-03-27 08:30:00,
2013-03-27 03:35:00,28.8,22.8,30.28,SE,140,0.0,0.0,78,0.00,,SKC,0.00,VWS V13.01,2013-03-27 08:35:00,
2013-03-27 03:40:00,28.7,22.7,30.27,SE,141,0.0,0.0,78,0.00,,SKC,0.00,VWS V13.01,2013-03-27 08:40:00,
2013-03-27 03:45:00,28.6,22.6,30.27,SE,140,0.0,0.0,78,0.00,,SKC,0.00,VWS V13.01,2013-03-27 08:45:00,
2013-03-27 03:50:00,28.5,22.5,30.27,SE,140,0.0,0.0,78,0.00,,SKC,0.00,VWS V13.01,2013-03-27 08:50:00,
2013-03-27 03:55:00,28.4,22.4,30.27,SE,140,0.0,0.0,78,0.00,,SKC,0.00,VWS V13.01,2013-03-27 08:55:00,
2013-03-27 04:00:00,28.3,22.6,30.27,SE,140,0.0,0.0,79,0.00,,SKC,0.00,VWS V13.01,2013-03-27 09:00:00,
2013-03-27 04:05:00,28.3,22.6,30.26,SE,143,0.0,0.0,79,0.00,,SKC,0.00,VWS V13.01,2013-03-27 09:05:00,
2013-03-27 04:10:00,28.4,22.7,30.26,SE,133,0.0,0.0,79,0.00,,SKC,0.00,VWS V13.01,2013-03-27 09:10:00,
2013-03-27 04:15:00,28.5,22.8,30.26,SE,133,0.0,0.0,79,0.00,,SKC,0.00,VWS V13.01,2013-03-27 09:15:00,
2013-03-27 04:20:00,28.6,22.6,30.26,SE,132,0.0,0.0,78,0.00,,SKC,0.00,VWS V13.01,2013-03-27 09:20:00,
2013-03-27 04:25:00,28.7,22.7,30.26,SE,132,0.0,0.0,78,0.00,,SKC,0.00,VWS V13.01,2013-03-27 09:25:00,
2013-03-27 04:30:00,28.7,22.7,30.26,SE,131,0.0,0.0,78,0.00,,SKC,0.00,VWS V13.01,2013-03-27 09:30:00,
2013-03-27 04:35:00,28.8,23.1,30.26,SE,132,0.0,0.0,79,0.00,,SKC,0.00,VWS V13.01,2013-03-27 09:35:00,
2013-03-27 04:40:00,28.8,23.1,30.26,SE,126,5.0,5.0,79,0.00,,SKC,0.00,VWS V13.01,2013-03-27 09:40:00,
2013-03-27 04:45:00,28.8,23.1,30.26,SE,124,0.0,0.0,79,0.00,,SKC,0.00,VWS V13.01,2013-03-27 09:45:00,
2013-03-27 04:50:00,28.7,23.0,30.26,SE,124,0.0,0.0,79,0.00,,SKC,0.00,VWS V13.01,2013-03-27 09:50:00,
2013-03-27 04:55:00,28.7,23.0,30.26,SE,124,0.0,0.0,79,0.00,,SKC,0.00,VWS V13.01,2013-03-27 09:55:00,
2013-03-27 05:00:00,28.6,22.9,30.26,ESE,123,0.0,0.0,79,0.00,,SKC,0.00,VWS V13.01,2013-03-27 10:00:00,
2013-03-27 05:05:00,28.6,22.9,30.25,ESE,123,0.0,2.0,79,0.00,,SKC,0.00,VWS V13.01,2013-03-27 10:05:00,
2013-03-27 05:10:00,28.5,22.8,30.26,ESE,123,0.0,0.0,79,0.00,,SKC,0.00,VWS V13.01,2013-03-27 10:10:00,
2013-03-27 05:15:00,28.5,22.8,30.26,ESE,123,0.0,0.0,79,0.00,,SKC,0.00,VWS V13.01,2013-03-27 10:15:00,
2013-03-27 05:20:00,28.4,22.7,30.26,ESE,123,0.0,0.0,79,0.00,,SKC,0.00,VWS V13.01,2013-03-27 10:20:00,
2013-03-27 05:25:00,28.3,22.6,30.26,SE,124,0.0,0.0,79,0.00,,SKC,0.00,VWS V13.01,2013-03-27 10:25:00,
2013-03-27 05:30:00,28.2,22.5,30.26,SE,124,0.0,0.0,79,0.00,,SKC,0.00,VWS V13.01,2013-03-27 10:30:00,
2013-03-27 05:35:00,28.1,22.4,30.26,SE,124,0.0,0.0,79,0.00,,SKC,0.00,VWS V13.01,2013-03-27 10:35:00,
2013-03-27 05:40:00,28.0,22.3,30.26,SE,124,0.0,0.0,79,0.00,,SKC,0.00,VWS V13.01,2013-03-27 10:40:00,
2013-03-27 05:46:00,28.1,22.4,30.26,ESE,123,0.0,0.0,79,0.00,,SKC,0.00,VWS V13.01,2013-03-27 10:46:00,
2013-03-27 05:51:00,28.1,22.4,30.26,ESE,122,0.0,5.0,79,0.00,,SKC,0.00,VWS V13.01,2013-03-27 10:51:00,
2013-03-27 05:56:00,28.1,22.4,30.26,ESE,122,0.0,1.0,79,0.00,,SKC,0.00,VWS V13.01,2013-03-27 10:56:00,
2013-03-27 06:01:00,28.1,22.4,30.26,ESE,122,0.0,0.0,79,0.00,,SKC,0.00,VWS V13.01,2013-03-27 11:01:00,
2013-03-27 06:06:00,28.1,22.4,30.26,ESE,122,0.0,0.0,79,0.00,,SKC,0.00,VWS V13.01,2013-03-27 11:06:00,
2013-03-27 06:11:00,28.1,22.4,30.26,ESE,122,0.0,0.0,79,0.00,,SKC,0.00,VWS V13.01,2013-03-27 11:11:00,
2013-03-27 06:16:00,28.0,22.3,30.27,ESE,122,0.0,0.0,79,0.00,,SKC,0.00,VWS V13.01,2013-03-27 11:16:00,
2013-03-27 06:21:00,27.8,22.1,30.26,ESE,122,0.0,0.0,79,0.00,,SKC,0.00,VWS V13.01,2013-03-27 11:21:00,
2013-03-27 06:26:00,27.6,22.0,30.26,ESE,122,0.0,0.0,79,0.00,,SKC,0.00,VWS V13.01,2013-03-27 11:26:00,
2013-03-27 06:31:00,27.5,22.1,30.26,ESE,122,2.0,4.0,80,0.00,,SKC,0.00,VWS V13.01,2013-03-27 11:31:00,
2013-03-27 06:36:00,27.3,22.0,30.26,ESE,122,4.0,5.0,80,0.00,,SKC,0.00,VWS V13.01,2013-03-27 11:36:00,
2013-03-27 06:41:00,27.2,21.9,30.26,ESE,120,0.0,0.0,80,0.00,,SKC,0.00,VWS V13.01,2013-03-27 11:41:00,
2013-03-27 06:46:00,27.2,22.1,30.26,ESE,118,5.0,7.0,81,0.00,,SKC,0.00,VWS V13.01,2013-03-27 11:46:00,
2013-03-27 06:51:00,27.1,22.1,30.26,ESE,115,2.0,6.0,81,0.00,,SKC,0.00,VWS V13.01,2013-03-27 11:51:00,
2013-03-27 06:56:00,27.1,22.1,30.26,ESE,111,6.0,7.0,81,0.00,,SKC,0.00,VWS V13.01,2013-03-27 11:56:00,
2013-03-27 07:01:00,27.2,22.1,30.27,ESE,111,0.0,1.0,81,0.00,,SKC,0.00,VWS V13.01,2013-03-27 12:01:00,
2013-03-27 07:06:00,27.2,22.1,30.27,ESE,115,0.0,7.0,81,0.00,,SKC,0.00,VWS V13.01,2013-03-27 12:06:00,
2013-03-27 07:11:00,27.3,22.2,30.27,ESE,113,4.0,6.0,81,0.00,,SKC,0.00,VWS V13.01,2013-03-27 12:11:00,
2013-03-27 07:16:00,27.4,22.0,30.26,ESE,115,1.0,7.0,80,0.00,,SKC,0.00,VWS V13.01,2013-03-27 12:16:00,
2013-03-27 07:21:00,27.4,22.0,30.27,ESE,113,0.0,5.0,80,0.00,,SKC,0.00,VWS V13.01,2013-03-27 12:21:00,
2013-03-27 07:26:00,27.4,22.0,30.27,ESE,111,4.0,5.0,80,0.00,,SKC,0.00,VWS V13.01,2013-03-27 12:26:00,
2013-03-27 07:31:00,27.5,22.1,30.27,ESE,107,2.0,7.0,80,0.00,,SKC,0.00,VWS V13.01,2013-03-27 12:31:00,
2013-03-27 07:36:00,27.6,22.2,30.27,ESE,105,2.0,2.0,80,0.00,,SKC,0.00,VWS V13.01,2013-03-27 12:36:00,
2013-03-27 07:41:00,27.7,22.4,30.27,East,98,2.0,8.0,80,0.00,,SKC,0.00,VWS V13.01,2013-03-27 12:41:00,
2013-03-27 07:46:00,27.9,22.2,30.27,East,99,4.0,6.0,79,0.00,,SKC,0.00,VWS V13.01,2013-03-27 12:46:00,
2013-03-27 07:51:00,28.0,22.3,30.27,East,99,2.0,6.0,79,0.00,,SKC,0.00,VWS V13.01,2013-03-27 12:51:00,
2013-03-27 07:56:00,28.2,22.5,30.28,East,99,6.0,6.0,79,0.00,,SKC,0.00,VWS V13.01,2013-03-27 12:56:00,
2013-03-27 08:01:00,28.4,22.7,30.28,ESE,105,4.0,6.0,79,0.00,,SKC,0.00,VWS V13.01,2013-03-27 13:01:00,
2013-03-27 08:06:00,28.7,22.7,30.28,ESE,111,0.0,7.0,78,0.00,,SKC,0.00,VWS V13.01,2013-03-27 13:06:00,
2013-03-27 08:11:00,28.9,22.9,30.28,SE,128,8.0,9.0,78,0.00,,SKC,0.00,VWS V13.01,2013-03-27 13:11:00,
2013-03-27 08:16:00,29.3,23.3,30.28,ESE,116,0.0,6.0,78,0.00,,SKC,0.00,VWS V13.01,2013-03-27 13:16:00,
2013-03-27 08:21:00,29.6,23.3,30.28,ESE,103,0.0,6.0,77,0.00,,SKC,0.00,VWS V13.01,2013-03-27 13:21:00,
2013-03-27 08:26:00,29.8,23.2,30.28,ESE,102,7.0,7.0,76,0.00,,SKC,0.00,VWS V13.01,2013-03-27 13:26:00,
2013-03-27 08:31:00,30.0,23.4,30.28,East,93,7.0,7.0,76,0.00,,SKC,0.00,VWS V13.01,2013-03-27 13:31:00,
2013-03-27 08:36:00,30.3,23.3,30.28,East,90,4.0,7.0,75,0.00,,SKC,0.00,VWS V13.01,2013-03-27 13:36:00,
2013-03-27 08:41:00,30.6,23.6,30.28,East,93,7.0,12.0,75,0.00,,SKC,0.00,VWS V13.01,2013-03-27 13:41:00,
2013-03-27 08:46:00,30.9,23.9,30.28,ESE,117,4.0,13.0,75,0.00,,SKC,0.00,VWS V13.01,2013-03-27 13:46:00,
2013-03-27 08:51:00,31.1,23.8,30.29,ESE,117,9.0,14.0,74,0.00,,SKC,0.00,VWS V13.01,2013-03-27 13:51:00,
2013-03-27 08:56:00,31.5,23.9,30.28,ESE,109,8.0,13.0,73,0.00,,SKC,0.00,VWS V13.01,2013-03-27 13:56:00,
2013-03-27 09:01:00,31.7,23.7,30.28,ESE,110,9.0,11.0,72,0.00,,SKC,0.00,VWS V13.01,2013-03-27 14:01:00,
2013-03-27 09:06:00,32.1,24.1,30.28,ESE,108,0.0,13.0,72,0.00,,SKC,0.00,VWS V13.01,2013-03-27 14:06:00,
2013-03-27 09:11:00,32.5,24.2,30.28,SE,131,7.0,9.0,71,0.00,,SKC,0.00,VWS V13.01,2013-03-27 14:11:00,
2013-03-27 09:16:00,32.8,24.1,30.28,East,99,9.0,11.0,70,0.00,,SKC,0.00,VWS V13.01,2013-03-27 14:16:00,
2013-03-27 09:22:00,33.3,24.6,30.29,ESE,120,14.0,17.0,70,0.00,,SKC,0.00,VWS V13.01,2013-03-27 14:22:00,
2013-03-27 09:28:00,33.8,24.7,30.29,ESE,118,12.0,16.0,69,0.00,,SKC,0.00,VWS V13.01,2013-03-27 14:28:00,
2013-03-27 09:33:00,34.3,24.9,30.29,ESE,106,2.0,15.0,68,0.00,,SKC,0.00,VWS V13.01,2013-03-27 14:33:00,
2013-03-27 09:38:00,34.9,25.1,30.29,East,90,4.0,13.0,67,0.00,,SKC,0.00,VWS V13.01,2013-03-27 14:38:00,
2013-03-27 09:43:00,35.7,25.1,30.29,ESE,121,13.0,14.0,65,0.00,,SKC,0.00,VWS V13.01,2013-03-27 14:43:00,
2013-03-27 09:48:00,36.0,25.4,30.29,ENE,74,4.0,13.0,65,0.00,,SKC,0.00,VWS V13.01,2013-03-27 14:48:00,
2013-03-27 09:53:00,36.3,24.9,30.29,ESE,104,4.0,9.0,63,0.00,,SKC,0.00,VWS V13.01,2013-03-27 14:53:00,
2013-03-27 09:58:00,36.6,24.8,30.29,ESE,102,9.0,19.0,62,0.00,,SKC,0.00,VWS V13.01,2013-03-27 14:58:00,
2013-03-27 10:03:00,36.9,25.1,30.28,SE,129,4.0,13.0,62,0.00,,SKC,0.00,VWS V13.01,2013-03-27 15:03:00,
2013-03-27 10:08:00,37.6,25.8,30.28,East,95,7.0,14.0,62,0.00,,SKC,0.00,VWS V13.01,2013-03-27 15:08:00,
2013-03-27 10:13:00,38.0,25.4,30.28,ENE,64,10.0,21.0,60,0.00,,SKC,0.00,VWS V13.01,2013-03-27 15:13:00,
2013-03-27 10:18:00,38.4,25.3,30.28,East,97,13.0,18.0,59,0.00,,SKC,0.00,VWS V13.01,2013-03-27 15:18:00,
2013-03-27 10:23:00,38.7,25.2,30.28,SE,127,14.0,24.0,58,0.00,,SKC,0.00,VWS V13.01,2013-03-27 15:23:00,
2013-03-27 10:28:00,38.8,25.3,30.28,ESE,118,7.0,16.0,58,0.00,,SKC,0.00,VWS V13.01,2013-03-27 15:28:00,
2013-03-27 10:33:00,39.2,25.7,30.27,ESE,106,2.0,15.0,58,0.00,,SKC,0.00,VWS V13.01,2013-03-27 15:33:00,
2013-03-27 10:38:00,40.0,26.0,30.27,ESE,116,6.0,15.0,57,0.00,,SKC,0.00,VWS V13.01,2013-03-27 15:38:00,
2013-03-27 10:43:00,40.8,26.3,30.28,South,172,7.0,9.0,56,0.00,,SKC,0.00,VWS V13.01,2013-03-27 15:43:00,
2013-03-27 10:48:00,41.7,26.7,30.28,ESE,119,5.0,7.0,55,0.00,,SKC,0.00,VWS V13.01,2013-03-27 15:48:00,
2013-03-27 10:53:00,42.5,27.0,30.28,SSE,164,10.0,15.0,54,0.00,,SKC,0.00,VWS V13.01,2013-03-27 15:53:00,
2013-03-27 10:58:00,42.2,26.8,30.28,East,98,0.0,11.0,54,0.00,,SKC,0.00,VWS V13.01,2013-03-27 15:58:00,
2013-03-27 11:03:00,42.5,26.6,30.28,SE,134,13.0,13.0,53,0.00,,SKC,0.00,VWS V13.01,2013-03-27 16:03:00,
2013-03-27 11:08:00,43.2,27.2,30.28,ESE,108,8.0,9.0,53,0.00,,SKC,0.00,VWS V13.01,2013-03-27 16:08:00,
2013-03-27 11:14:00,44.0,27.5,30.28,East,93,8.0,14.0,52,0.00,,SKC,0.00,VWS V13.01,2013-03-27 16:14:00,
2013-03-27 11:19:00,44.2,27.2,30.28,East,97,11.0,15.0,51,0.00,,SKC,0.00,VWS V13.01,2013-03-27 16:19:00,
2013-03-27 11:24:00,44.0,27.5,30.28,East,89,6.0,14.0,52,0.00,,SKC,0.00,VWS V13.01,2013-03-27 16:24:00,
2013-03-27 11:29:00,44.2,26.8,30.27,East,99,8.0,14.0,50,0.00,,SKC,0.00,VWS V13.01,2013-03-27 16:29:00,
2013-03-27 11:34:00,44.7,27.2,30.27,ESE,109,9.0,12.0,50,0.00,,SKC,0.00,VWS V13.01,2013-03-27 16:34:00,
2013-03-27 11:39:00,45.4,27.9,30.27,ESE,110,19.0,19.0,50,0.00,,SKC,0.00,VWS V13.01,2013-03-27 16:39:00,
2013-03-27 11:44:00,46.1,27.0,30.27,ESE,118,15.0,19.0,47,0.00,,SKC,0.00,VWS V13.01,2013-03-27 16:44:00,
2013-03-27 11:49:00,46.7,27.6,30.27,SE,145,6.0,18.0,47,0.00,,SKC,0.00,VWS V13.01,2013-03-27 16:49:00,
2013-03-27 11:54:00,47.4,27.1,30.27,ENE,70,6.0,15.0,45,0.00,,SKC,0.00,VWS V13.01,2013-03-27 16:54:00,
2013-03-27 11:59:00,46.9,26.1,30.27,East,80,3.0,20.0,44,0.00,,SKC,0.00,VWS V13.01,2013-03-27 16:59:00,
2013-03-27 12:04:00,46.9,26.1,30.27,ENE,70,4.0,17.0,44,0.00,,SKC,0.00,VWS V13.01,2013-03-27 17:04:00,
2013-03-27 12:09:00,47.2,27.0,30.27,ESE,114,8.0,14.0,45,0.00,,SKC,0.00,VWS V13.01,2013-03-27 17:09:00,
2013-03-27 12:14:00,47.1,26.9,30.27,SE,129,13.0,14.0,45,0.00,,SKC,0.00,VWS V13.01,2013-03-27 17:14:00,
2013-03-27 12:19:00,46.6,26.4,30.26,ESE,122,4.0,16.0,45,0.00,,SKC,0.00,VWS V13.01,2013-03-27 17:19:00,
2013-03-27 12:24:00,46.9,27.2,30.26,East,87,3.0,13.0,46,0.00,,SKC,0.00,VWS V13.01,2013-03-27 17:24:00,
2013-03-27 12:29:00,47.1,27.9,30.27,ESE,118,0.0,10.0,47,0.00,,SKC,0.00,VWS V13.01,2013-03-27 17:29:00,
2013-03-27 12:34:00,47.1,26.9,30.27,East,84,7.0,14.0,45,0.00,,SKC,0.00,VWS V13.01,2013-03-27 17:34:00,
2013-03-27 12:39:00,46.1,26.5,30.27,South,170,5.0,15.0,46,0.00,,SKC,0.00,VWS V13.01,2013-03-27 17:39:00,
2013-03-27 12:44:00,46.1,27.0,30.26,ESE,117,5.0,15.0,47,0.00,,SKC,0.00,VWS V13.01,2013-03-27 17:44:00,
2013-03-27 12:49:00,46.3,27.7,30.26,ESE,109,5.0,9.0,48,0.00,,SKC,0.00,VWS V13.01,2013-03-27 17:49:00,
2013-03-27 12:54:00,46.2,27.6,30.26,SW,230,7.0,15.0,48,0.00,,SKC,0.00,VWS V13.01,2013-03-27 17:54:00,
2013-03-27 12:59:00,47.0,28.3,30.26,East,92,11.0,13.0,48,0.00,,SKC,0.00,VWS V13.01,2013-03-27 17:59:00,
2013-03-27 13:04:00,46.8,28.2,30.26,SE,125,15.0,19.0,48,0.00,,SKC,0.00,VWS V13.01,2013-03-27 18:04:00,
2013-03-27 13:09:00,46.6,28.0,30.26,ESE,108,7.0,14.0,48,0.00,,SKC,0.00,VWS V13.01,2013-03-27 18:09:00,
2013-03-27 13:14:00,47.3,28.1,30.26,SE,129,6.0,15.0,47,0.00,,SKC,0.00,VWS V13.01,2013-03-27 18:14:00,
2013-03-27 13:19:00,47.7,28.5,30.26,SE,137,6.0,13.0,47,0.00,,SKC,0.00,VWS V13.01,2013-03-27 18:19:00,
2013-03-27 13:24:00,48.6,28.8,30.25,SSE,166,4.0,8.0,46,0.00,,SKC,0.00,VWS V13.01,2013-03-27 18:24:00,
2013-03-27 13:29:00,49.4,29.5,30.25,South,181,9.0,10.0,46,0.00,,SKC,0.00,VWS V13.01,2013-03-27 18:29:00,
2013-03-27 13:34:00,50.0,29.0,30.25,East,96,13.0,15.0,44,0.00,,SKC,0.00,VWS V13.01,2013-03-27 18:34:00,
2013-03-27 13:39:00,49.1,28.7,30.25,East,95,18.0,20.0,45,0.00,,SKC,0.00,VWS V13.01,2013-03-27 18:39:00,
2013-03-27 13:44:00,48.3,29.0,30.25,East,101,11.0,13.0,47,0.00,,SKC,0.00,VWS V13.01,2013-03-27 18:44:00,
2013-03-27 13:49:00,48.6,29.3,30.25,ENE,72,3.0,18.0,47,0.00,,SKC,0.00,VWS V13.01,2013-03-27 18:49:00,
2013-03-27 13:54:00,48.7,28.9,30.25,East,90,7.0,19.0,46,0.00,,SKC,0.00,VWS V13.01,2013-03-27 18:54:00,
2013-03-27 13:59:00,49.3,29.4,30.24,ESE,107,14.0,18.0,46,0.00,,SKC,0.00,VWS V13.01,2013-03-27 18:59:00,
2013-03-27 14:04:00,49.1,29.2,30.24,ENE,74,10.0,19.0,46,0.00,,SKC,0.00,VWS V13.01,2013-03-27 19:04:00,
2013-03-27 14:09:00,50.6,30.6,30.24,East,98,9.0,20.0,46,0.00,,SKC,0.00,VWS V13.01,2013-03-27 19:09:00,
2013-03-27 14:14:00,51.2,30.0,30.23,ESE,104,14.0,16.0,44,0.00,,SKC,0.00,VWS V13.01,2013-03-27 19:14:00,
2013-03-27 14:19:00,50.7,28.5,30.24,East,101,15.0,18.0,42,0.00,,SKC,0.00,VWS V13.01,2013-03-27 19:19:00,
2013-03-27 14:24:00,49.1,29.2,30.23,South,181,2.0,15.0,46,0.00,,SKC,0.00,VWS V13.01,2013-03-27 19:24:00,
2013-03-27 14:29:00,50.3,29.8,30.23,ESE,102,2.0,11.0,45,0.00,,SKC,0.00,VWS V13.01,2013-03-27 19:29:00,
2013-03-27 14:34:00,50.9,31.4,30.23,ESE,103,8.0,13.0,47,0.00,,SKC,0.00,VWS V13.01,2013-03-27 19:34:00,
2013-03-27 14:39:00,52.9,31.0,30.22,East,101,0.0,9.0,43,0.00,,SKC,0.00,VWS V13.01,2013-03-27 19:39:00,
2013-03-27 14:44:00,54.8,31.0,30.22,SW,216,7.0,12.0,40,0.00,,SKC,0.00,VWS V13.01,2013-03-27 19:44:00,
2013-03-27 14:49:00,55.0,31.1,30.22,East,96,1.0,7.0,40,0.00,,SKC,0.00,VWS V13.01,2013-03-27 19:49:00,
2013-03-27 14:54:00,55.5,31.0,30.22,ESE,114,13.0,16.0,39,0.00,,SKC,0.00,VWS V13.01,2013-03-27 19:54:00,
2013-03-27 14:59:00,54.6,30.2,30.22,East,97,12.0,14.0,39,0.00,,SKC,0.00,VWS V13.01,2013-03-27 19:59:00,
2013-03-27 15:04:00,53.9,31.9,30.22,East,82,10.0,15.0,43,0.00,,SKC,0.00,VWS V13.01,2013-03-27 20:04:00,
2013-03-27 15:09:00,52.6,29.0,30.22,SE,125,4.0,19.0,40,0.00,,SKC,0.00,VWS V13.01,2013-03-27 20:09:00,
2013-03-27 15:14:00,53.6,31.7,30.22,SE,139,4.0,12.0,43,0.00,,SKC,0.00,VWS V13.01,2013-03-27 20:14:00,
2013-03-27 15:19:00,54.1,32.1,30.22,East,95,13.0,15.0,43,0.00,,SKC,0.00,VWS V13.01,2013-03-27 20:19:00,
2013-03-27 15:24:00,54.7,31.5,30.22,East,97,2.0,9.0,41,0.00,,SKC,0.00,VWS V13.01,2013-03-27 20:24:00,
2013-03-27 15:29:00,55.2,31.3,30.22,SE,129,8.0,14.0,40,0.00,,SKC,0.00,VWS V13.01,2013-03-27 20:29:00,
2013-03-27 15:34:00,56.4,31.8,30.21,East,101,9.0,14.0,39,0.00,,SKC,0.00,VWS V13.01,2013-03-27 20:34:00,
2013-03-27 15:39:00,55.1,31.2,30.21,SE,131,9.0,9.0,40,0.00,,SKC,0.00,VWS V13.01,2013-03-27 20:39:00,
2013-03-27 15:44:00,55.6,32.3,30.21,SSE,165,0.0,13.0,41,0.00,,SKC,0.00,VWS V13.01,2013-03-27 20:44:00,
2013-03-27 15:49:00,56.2,31.6,30.21,East,99,8.0,8.0,39,0.00,,SKC,0.00,VWS V13.01,2013-03-27 20:49:00,
2013-03-27 15:54:00,55.9,30.7,30.20,ESE,110,9.0,12.0,38,0.00,,SKC,0.00,VWS V13.01,2013-03-27 20:54:00,
2013-03-27 16:00:00,55.3,32.0,30.21,SSE,157,6.0,11.0,41,0.00,,SKC,0.00,VWS V13.01,2013-03-27 21:00:00,
2013-03-27 16:06:00,56.3,31.7,30.20,ESE,118,8.0,11.0,39,0.00,,SKC,0.00,VWS V13.01,2013-03-27 21:06:00,
2013-03-27 16:11:00,56.9,30.9,30.20,East,94,5.0,16.0,37,0.00,,SKC,0.00,VWS V13.01,2013-03-27 21:11:00,
2013-03-27 16:16:00,56.2,32.2,30.20,East,87,0.0,7.0,40,0.00,,SKC,0.00,VWS V13.01,2013-03-27 21:16:00,
2013-03-27 16:21:00,56.4,31.8,30.20,SE,139,9.0,12.0,39,0.00,,SKC,0.00,VWS V13.01,2013-03-27 21:21:00,
2013-03-27 16:26:00,55.4,30.2,30.20,East,91,13.0,15.0,38,0.00,,SKC,0.00,VWS V13.01,2013-03-27 21:26:00,
2013-03-27 16:31:00,55.3,31.4,30.20,SE,135,2.0,9.0,40,0.00,,SKC,0.00,VWS V13.01,2013-03-27 21:31:00,
2013-03-27 16:36:00,55.5,31.6,30.20,East,100,1.0,8.0,40,0.00,,SKC,0.00,VWS V13.01,2013-03-27 21:36:00,
2013-03-27 16:42:00,56.4,31.8,30.19,SE,133,8.0,18.0,39,0.00,,SKC,0.00,VWS V13.01,2013-03-27 21:42:00,
2013-03-27 16:47:00,56.2,31.6,30.19,ESE,104,8.0,12.0,39,0.00,,SKC,0.00,VWS V13.01,2013-03-27 21:47:00,
2013-03-27 16:52:00,55.8,31.2,30.19,SE,125,2.0,13.0,39,0.00,,SKC,0.00,VWS V13.01,2013-03-27 21:52:00,
2013-03-27 16:58:00,55.4,32.1,30.19,ESE,111,7.0,8.0,41,0.00,,SKC,0.00,VWS V13.01,2013-03-27 21:58:00,
2013-03-27 17:04:00,57.0,32.9,30.20,ESE,114,2.0,8.0,40,0.00,,SKC,0.00,VWS V13.01,2013-03-27 22:04:00,
2013-03-27 17:09:00,57.6,32.2,30.20,ESE,112,0.0,7.0,38,0.00,,SKC,0.00,VWS V13.01,2013-03-27 22:09:00,
2013-03-27 17:14:00,58.1,32.7,30.20,SSE,147,8.0,11.0,38,0.00,,SKC,0.00,VWS V13.01,2013-03-27 22:14:00,
2013-03-27 17:20:00,57.3,31.3,30.20,East,94,4.0,15.0,37,0.00,,SKC,0.00,VWS V13.01,2013-03-27 22:20:00,
2013-03-27 17:25:00,55.7,31.1,30.20,ENE,71,2.0,13.0,39,0.00,,SKC,0.00,VWS V13.01,2013-03-27 22:25:00,
2013-03-27 17:30:00,54.8,31.0,30.20,East,99,2.0,6.0,40,0.00,,SKC,0.00,VWS V13.01,2013-03-27 22:30:00,
2013-03-27 17:35:00,55.6,31.7,30.20,SE,131,7.0,10.0,40,0.00,,SKC,0.00,VWS V13.01,2013-03-27 22:35:00,
2013-03-27 17:40:00,56.2,32.2,30.20,ESE,118,7.0,7.0,40,0.00,,SKC,0.00,VWS V13.01,2013-03-27 22:40:00,
2013-03-27 17:46:00,56.4,31.8,30.20,SE,135,7.0,15.0,39,0.00,,SKC,0.00,VWS V13.01,2013-03-27 22:46:00,
2013-03-27 17:51:00,55.4,32.1,30.20,ESE,106,1.0,9.0,41,0.00,,SKC,0.00,VWS V13.01,2013-03-27 22:51:00,
2013-03-27 17:56:00,55.4,32.7,30.20,SSE,155,4.0,5.0,42,0.00,,SKC,0.00,VWS V13.01,2013-03-27 22:56:00,
2013-03-27 18:02:00,55.5,32.2,30.20,SE,129,1.0,5.0,41,0.00,,SKC,0.00,VWS V13.01,2013-03-27 23:02:00,
2013-03-27 18:08:00,55.3,32.0,30.20,South,177,2.0,6.0,41,0.00,,SKC,0.00,VWS V13.01,2013-03-27 23:08:00,
2013-03-27 18:13:00,54.9,32.3,30.20,SSW,193,1.0,12.0,42,0.00,,SKC,0.00,VWS V13.01,2013-03-27 23:13:00,
2013-03-27 18:18:00,54.3,31.7,30.20,SSE,159,10.0,10.0,42,0.00,,SKC,0.00,VWS V13.01,2013-03-27 23:18:00,
2013-03-27 18:23:00,53.8,31.3,30.20,ESE,120,2.0,12.0,42,0.00,,SKC,0.00,VWS V13.01,2013-03-27 23:23:00,
2013-03-27 18:28:00,53.6,31.7,30.21,ESE,112,0.0,9.0,43,0.00,,SKC,0.00,VWS V13.01,2013-03-27 23:28:00,
2013-03-27 18:33:00,53.8,32.4,30.20,SE,139,12.0,17.0,44,0.00,,SKC,0.00,VWS V13.01,2013-03-27 23:33:00,
2013-03-27 18:38:00,53.5,32.1,30.21,SSE,161,5.0,8.0,44,0.00,,SKC,0.00,VWS V13.01,2013-03-27 23:38:00,
2013-03-27 18:43:00,53.5,32.1,30.21,SE,124,1.0,4.0,44,0.00,,SKC,0.00,VWS V13.01,2013-03-27 23:43:00,
2013-03-27 18:48:00,53.3,32.0,30.21,South,186,6.0,12.0,44,0.00,,SKC,0.00,VWS V13.01,2013-03-27 23:48:00,
2013-03-27 18:53:00,52.7,32.0,30.21,SSE,153,7.0,8.0,45,0.00,,SKC,0.00,VWS V13.01,2013-03-27 23:53:00,
2013-03-27 18:58:00,52.3,31.6,30.21,SE,143,6.0,12.0,45,0.00,,SKC,0.00,VWS V13.01,2013-03-27 23:58:00,
2013-03-27 19:03:00,51.9,31.8,30.21,South,172,1.0,7.0,46,0.00,,SKC,0.00,VWS V13.01,2013-03-28 00:03:00,
2013-03-27 19:08:00,51.7,31.6,30.21,SE,145,8.0,8.0,46,0.00,,SKC,0.00,VWS V13.01,2013-03-28 00:08:00,
2013-03-27 19:13:00,51.3,31.8,30.21,ESE,104,2.0,10.0,47,0.00,,SKC,0.00,VWS V13.01,2013-03-28 00:13:00,
2013-03-27 19:19:00,50.7,31.7,30.21,SE,134,11.0,12.0,48,0.00,,SKC,0.00,VWS V13.01,2013-03-28 00:19:00,
2013-03-27 19:24:00,50.3,31.4,30.21,SSE,158,6.0,9.0,48,0.00,,SKC,0.00,VWS V13.01,2013-03-28 00:24:00,
2013-03-27 19:29:00,50.0,31.1,30.22,SE,128,5.0,8.0,48,0.00,,SKC,0.00,VWS V13.01,2013-03-28 00:29:00,
2013-03-27 19:35:00,49.6,31.2,30.22,SE,144,0.0,6.0,49,0.00,,SKC,0.00,VWS V13.01,2013-03-28 00:35:00,
2013-03-27 19:40:00,49.3,31.5,30.22,SE,131,0.0,7.0,50,0.00,,SKC,0.00,VWS V13.01,2013-03-28 00:40:00,
2013-03-27 19:45:00,49.0,31.2,30.22,SE,126,6.0,8.0,50,0.00,,SKC,0.00,VWS V13.01,2013-03-28 00:45:00,
2013-03-27 19:50:00,48.6,31.3,30.22,ESE,118,0.0,7.0,51,0.00,,SKC,0.00,VWS V13.01,2013-03-28 00:50:00,
2013-03-27 19:55:00,48.3,31.0,30.22,ESE,119,0.0,0.0,51,0.00,,SKC,0.00,VWS V13.01,2013-03-28 00:55:00,
2013-03-27 20:00:00,48.0,31.2,30.22,ESE,123,0.0,0.0,52,0.00,,SKC,0.00,VWS V13.01,2013-03-28 01:00:00,
2013-03-27 20:05:00,47.6,31.3,30.22,SE,128,0.0,0.0,53,0.00,,SKC,0.00,VWS V13.01,2013-03-28 01:05:00,
2013-03-27 20:10:00,47.3,31.5,30.23,SE,129,6.0,7.0,54,0.00,,SKC,0.00,VWS V13.01,2013-03-28 01:10:00,
2013-03-27 20:15:00,47.0,31.2,30.23,ESE,108,5.0,5.0,54,0.00,,SKC,0.00,VWS V13.01,2013-03-28 01:15:00,
2013-03-27 20:20:00,46.8,31.5,30.23,ESE,120,6.0,11.0,55,0.00,,SKC,0.00,VWS V13.01,2013-03-28 01:20:00,
2013-03-27 20:25:00,46.6,31.8,30.23,ESE,121,0.0,4.0,56,0.00,,SKC,0.00,VWS V13.01,2013-03-28 01:25:00,
2013-03-27 20:30:00,46.5,31.7,30.23,ESE,116,0.0,0.0,56,0.00,,SKC,0.00,VWS V13.01,2013-03-28 01:30:00,
2013-03-27 20:35:00,46.3,31.9,30.24,ESE,112,0.0,0.0,57,0.00,,SKC,0.00,VWS V13.01,2013-03-28 01:35:00,
2013-03-27 20:40:00,46.2,31.8,30.24,ESE,112,0.0,0.0,57,0.00,,SKC,0.00,VWS V13.01,2013-03-28 01:40:00,
2013-03-27 20:45:00,46.0,32.1,30.24,ESE,103,8.0,8.0,58,0.00,,SKC,0.00,VWS V13.01,2013-03-28 01:45:00,
2013-03-27 20:51:00,45.8,31.9,30.24,ESE,120,0.0,0.0,58,0.00,,SKC,0.00,VWS V13.01,2013-03-28 01:51:00,
2013-03-27 20:56:00,45.5,32.0,30.24,ESE,119,5.0,9.0,59,0.00,,SKC,0.00,VWS V13.01,2013-03-28 01:56:00,
2013-03-27 21:01:00,45.4,31.9,30.24,ESE,110,7.0,13.0,59,0.00,,SKC,0.00,VWS V13.01,2013-03-28 02:01:00,
2013-03-27 21:06:00,45.2,32.2,30.24,ESE,114,2.0,8.0,60,0.00,,SKC,0.00,VWS V13.01,2013-03-28 02:06:00,
2013-03-27 21:11:00,45.0,32.0,30.24,ESE,110,0.0,9.0,60,0.00,,SKC,0.00,VWS V13.01,2013-03-28 02:11:00,
2013-03-27 21:16:00,44.8,32.2,30.24,ESE,103,8.0,8.0,61,0.00,,SKC,0.00,VWS V13.01,2013-03-28 02:16:00,
2013-03-27 21:21:00,44.6,32.4,30.24,ESE,122,0.0,7.0,62,0.00,,SKC,0.00,VWS V13.01,2013-03-28 02:21:00,
2013-03-27 21:26:00,44.5,32.3,30.24,ESE,110,0.0,6.0,62,0.00,,SKC,0.00,VWS V13.01,2013-03-28 02:26:00,
2013-03-27 21:31:00,44.3,32.1,30.25,ESE,121,0.0,4.0,62,0.00,,SKC,0.00,VWS V13.01,2013-03-28 02:31:00,
2013-03-27 21:36:00,44.0,32.2,30.25,ESE,106,6.0,9.0,63,0.00,,SKC,0.00,VWS V13.01,2013-03-28 02:36:00,
2013-03-27 21:42:00,43.8,32.4,30.25,ESE,116,0.0,6.0,64,0.00,,SKC,0.00,VWS V13.01,2013-03-28 02:42:00,
2013-03-27 21:48:00,43.7,32.3,30.25,ESE,106,0.0,9.0,64,0.00,,SKC,0.00,VWS V13.01,2013-03-28 02:48:00,
2013-03-27 21:53:00,43.5,32.5,30.25,ESE,123,4.0,9.0,65,0.00,,SKC,0.00,VWS V13.01,2013-03-28 02:53:00,
2013-03-27 21:58:00,43.3,32.3,30.25,ESE,116,4.0,8.0,65,0.00,,SKC,0.00,VWS V13.01,2013-03-28 02:58:00,
2013-03-27 22:04:00,43.0,32.4,30.25,ESE,104,7.0,9.0,66,0.00,,SKC,0.00,VWS V13.01,2013-03-28 03:04:00,
2013-03-27 22:09:00,42.8,32.2,30.25,ESE,120,7.0,7.0,66,0.00,,SKC,0.00,VWS V13.01,2013-03-28 03:09:00,
2013-03-27 22:15:00,42.6,32.4,30.26,ESE,106,11.0,14.0,67,0.00,,SKC,0.00,VWS V13.01,2013-03-28 03:15:00,
2013-03-27 22:20:00,42.5,32.3,30.26,SE,126,11.0,12.0,67,0.00,,SKC,0.00,VWS V13.01,2013-03-28 03:20:00,
2013-03-27 22:25:00,42.4,32.6,30.26,ESE,104,5.0,8.0,68,0.00,,SKC,0.00,VWS V13.01,2013-03-28 03:25:00,
2013-03-27 22:30:00,42.2,32.4,30.26,ESE,111,7.0,12.0,68,0.00,,SKC,0.00,VWS V13.01,2013-03-28 03:30:00,
2013-03-27 22:36:00,42.0,32.2,30.26,East,99,4.0,12.0,68,0.00,,SKC,0.00,VWS V13.01,2013-03-28 03:36:00,
2013-03-27 22:42:00,41.8,32.4,30.26,SSE,160,7.0,9.0,69,0.00,,SKC,0.00,VWS V13.01,2013-03-28 03:42:00,
2013-03-27 22:47:00,41.6,32.2,30.26,ESE,113,6.0,11.0,69,0.00,,SKC,0.00,VWS V13.01,2013-03-28 03:47:00,
2013-03-27 22:53:00,41.4,32.4,30.26,SE,128,11.0,11.0,70,0.00,,SKC,0.00,VWS V13.01,2013-03-28 03:53:00,
2013-03-27 22:58:00,41.4,32.4,30.26,East,101,4.0,9.0,70,0.00,,SKC,0.00,VWS V13.01,2013-03-28 03:58:00,
2013-03-27 23:00:00,41.3,32.3,30.27,ESE,118,8.0,8.0,70,0.00,,SKC,0.00,VWS V13.01,2013-03-28 04:00:00,
2013-03-27 23:01:00,41.3,32.3,30.27,East,100,11.0,13.0,70,0.00,,SKC,0.00,VWS V13.01,2013-03-28 04:01:00,
2013-03-27 23:02:00,41.3,32.3,30.27,ESE,120,6.0,11.0,70,0.00,,SKC,0.00,VWS V13.01,2013-03-28 04:02:00,
2013-03-27 23:03:00,41.2,32.2,30.26,East,93,5.0,9.0,70,0.00,,SKC,0.00,VWS V13.01,2013-03-28 04:03:00,
2013-03-27 23:09:00,41.0,32.0,30.26,ESE,110,9.0,12.0,70,0.00,,SKC,0.00,VWS V13.01,2013-03-28 04:09:00,
2013-03-27 23:14:00,40.8,32.1,30.27,ESE,111,6.0,6.0,71,0.00,,SKC,0.00,VWS V13.01,2013-03-28 04:14:00,
2013-03-27 23:19:00,40.7,32.0,30.26,ESE,104,7.0,7.0,71,0.00,,SKC,0.00,VWS V13.01,2013-03-28 04:19:00,
2013-03-27 23:24:00,40.6,32.3,30.27,ESE,114,6.0,11.0,72,0.00,,SKC,0.00,VWS V13.01,2013-03-28 04:24:00,
2013-03-27 23:29:00,40.5,32.2,30.27,ESE,104,6.0,11.0,72,0.00,,SKC,0.00,VWS V13.01,2013-03-28 04:29:00,
2013-03-27 23:35:00,40.4,32.1,30.27,ESE,121,5.0,6.0,72,0.00,,SKC,0.00,VWS V13.01,2013-03-28 04:35:00,
2013-03-27 23:40:00,40.3,32.0,30.27,SE,127,4.0,8.0,72,0.00,,SKC,0.00,VWS V13.01,2013-03-28 04:40:00,
2013-03-27 23:45:00,40.1,31.8,30.27,SE,134,4.0,7.0,72,0.00,,SKC,0.00,VWS V13.01,2013-03-28 04:45:00,
2013-03-27 23:50:00,39.9,31.6,30.27,ESE,122,0.0,6.0,72,0.00,,SKC,0.00,VWS V13.01,2013-03-28 04:50:00,
2013-03-27 23:55:00,39.7,31.8,30.27,SE,124,0.0,0.0,73,0.00,,SKC,0.00,VWS V13.01,2013-03-28 04:55:00,